< < Back
Terminal Aerodrome Forecast


Current Version              Previous Versions:   1  2  3  4  5  6  7  8  9  

Terminal Aerodrome Forecast

151
FTUS42 KGSP 241700
TAFAND
TAF
KAND 241720Z 2418/2518 10006KT P6SM FEW250
     FM242000 14006KT P6SM FEW250
     FM250700 12005KT P6SM BKN017
     FM250900 13005KT P6SM BKN008
     FM251200 19006KT P6SM OVC014 PROB30 2514/2516 4SM TSRA
      BKN008CB=

Latest METAR

932
SAUS70 KWBC 250600 RRA
MTRAND
METAR KAND 250556Z AUTO 12006KT 10SM CLR 16/11 A2993 RMK AO2 SLP129
T01610106 10211 20150 56009


USA.gov is the U.S. government's official web portal to all federal, state and local government web resources and services.